sensor_id;sensor_type;location;lat;lon;timestamp;pressure;altitude;pressure_sealevel;temperature;humidity
12178;BME280;6152;48.728;9.256;2023-07-08T00:00:44;97170.88;;;21.01;44.07
12178;BME280;6152;48.728;9.256;2023-07-08T00:03:17;97168.69;;;20.97;44.64
12178;BME280;6152;48.728;9.256;2023-07-08T00:05:44;97161.75;;;20.96;44.14
12178;BME280;6152;48.728;9.256;2023-07-08T00:08:14;97171.66;;;20.94;43.72
12178;BME280;6152;48.728;9.256;2023-07-08T00:10:41;97166.03;;;20.89;43.76
12178;BME280;6152;48.728;9.256;2023-07-08T00:13:09;97167.97;;;20.87;44.24
12178;BME280;6152;48.728;9.256;2023-07-08T00:15:36;97163.00;;;20.84;44.11
12178;BME280;6152;48.728;9.256;2023-07-08T00:18:10;97160.66;;;20.81;43.83
12178;BME280;6152;48.728;9.256;2023-07-08T00:20:39;97155.00;;;20.76;44.25
12178;BME280;6152;48.728;9.256;2023-07-08T00:23:09;97152.00;;;20.71;43.83
12178;BME280;6152;48.728;9.256;2023-07-08T00:25:35;97151.63;;;20.65;43.93
12178;BME280;6152;48.728;9.256;2023-07-08T00:28:01;97150.94;;;20.63;44.56
12178;BME280;6152;48.728;9.256;2023-07-08T00:30:29;97138.19;;;20.59;45.85
12178;BME280;6152;48.728;9.256;2023-07-08T00:32:57;97143.78;;;20.56;45.43
12178;BME280;6152;48.728;9.256;2023-07-08T00:35:40;97136.47;;;20.50;45.27
12178;BME280;6152;48.728;9.256;2023-07-08T00:38:21;97140.56;;;20.44;45.29
12178;BME280;6152;48.728;9.256;2023-07-08T00:41:04;97143.50;;;20.41;45.49
12178;BME280;6152;48.728;9.256;2023-07-08T00:43:38;97143.13;;;20.36;46.80
12178;BME280;6152;48.728;9.256;2023-07-08T00:51:36;97162.66;;;20.26;47.08
12178;BME280;6152;48.728;9.256;2023-07-08T00:54:12;97158.34;;;20.25;46.90
12178;BME280;6152;48.728;9.256;2023-07-08T00:59:23;97153.81;;;20.17;46.68
12178;BME280;6152;48.728;9.256;2023-07-08T01:01:50;97155.25;;;20.11;47.42
12178;BME280;6152;48.728;9.256;2023-07-08T01:07:01;97148.41;;;20.01;47.68
12178;BME280;6152;48.728;9.256;2023-07-08T01:09:32;97156.75;;;19.96;48.37
12178;BME280;6152;48.728;9.256;2023-07-08T01:12:04;97158.19;;;19.91;49.01
12178;BME280;6152;48.728;9.256;2023-07-08T01:14:35;97153.53;;;19.85;49.54
12178;BME280;6152;48.728;9.256;2023-07-08T01:17:02;97161.03;;;19.80;50.24
12178;BME280;6152;48.728;9.256;2023-07-08T01:19:29;97151.91;;;19.74;50.58
12178;BME280;6152;48.728;9.256;2023-07-08T01:22:03;97150.72;;;19.69;50.26
12178;BME280;6152;48.728;9.256;2023-07-08T01:24:32;97149.47;;;19.63;50.54
12178;BME280;6152;48.728;9.256;2023-07-08T01:27:02;97154.22;;;19.59;50.63
12178;BME280;6152;48.728;9.256;2023-07-08T01:29:30;97149.25;;;19.56;50.55
12178;BME280;6152;48.728;9.256;2023-07-08T01:31:59;97148.94;;;19.59;49.29
12178;BME280;6152;48.728;9.256;2023-07-08T01:34:32;97148.09;;;19.59;50.29
12178;BME280;6152;48.728;9.256;2023-07-08T01:36:59;97147.28;;;19.58;50.91
12178;BME280;6152;48.728;9.256;2023-07-08T01:39:29;97153.09;;;19.62;50.13
12178;BME280;6152;48.728;9.256;2023-07-08T01:41:56;97149.66;;;19.61;51.59
12178;BME280;6152;48.728;9.256;2023-07-08T01:44:34;97152.56;;;19.58;50.77
12178;BME280;6152;48.728;9.256;2023-07-08T01:47:12;97149.25;;;19.56;49.66
12178;BME280;6152;48.728;9.256;2023-07-08T01:49:41;97149.25;;;19.56;49.14
12178;BME280;6152;48.728;9.256;2023-07-08T01:52:09;97141.63;;;19.53;49.38
12178;BME280;6152;48.728;9.256;2023-07-08T01:54:36;97149.53;;;19.53;49.82
12178;BME280;6152;48.728;9.256;2023-07-08T01:57:02;97142.59;;;19.52;50.12
12178;BME280;6152;48.728;9.256;2023-07-08T01:59:29;97151.78;;;19.48;50.27
12178;BME280;6152;48.728;9.256;2023-07-08T02:01:55;97139.56;;;19.47;50.29
12178;BME280;6152;48.728;9.256;2023-07-08T02:04:22;97150.44;;;19.44;51.40
12178;BME280;6152;48.728;9.256;2023-07-08T02:06:55;97143.47;;;19.43;50.68
12178;BME280;6152;48.728;9.256;2023-07-08T02:09:21;97146.13;;;19.43;51.46
12178;BME280;6152;48.728;9.256;2023-07-08T02:11:48;97149.03;;;19.40;53.17
12178;BME280;6152;48.728;9.256;2023-07-08T02:14:14;97146.38;;;19.40;52.51
12178;BME280;6152;48.728;9.256;2023-07-08T02:16:40;97148.19;;;19.40;50.84
12178;BME280;6152;48.728;9.256;2023-07-08T02:19:06;97144.03;;;19.37;51.51
12178;BME280;6152;48.728;9.256;2023-07-08T02:21:32;97149.59;;;19.34;51.29
12178;BME280;6152;48.728;9.256;2023-07-08T02:23:59;97150.59;;;19.33;53.23
12178;BME280;6152;48.728;9.256;2023-07-08T02:26:26;97154.50;;;19.29;52.96
12178;BME280;6152;48.728;9.256;2023-07-08T02:28:52;97155.75;;;19.25;53.57
12178;BME280;6152;48.728;9.256;2023-07-08T02:31:18;97152.44;;;19.23;53.01
12178;BME280;6152;48.728;9.256;2023-07-08T02:33:45;97152.72;;;19.20;53.00
12178;BME280;6152;48.728;9.256;2023-07-08T02:36:11;97156.63;;;19.16;52.30
12178;BME280;6152;48.728;9.256;2023-07-08T02:38:37;97150.81;;;19.12;52.00
12178;BME280;6152;48.728;9.256;2023-07-08T02:41:03;97148.59;;;19.08;53.04
12178;BME280;6152;48.728;9.256;2023-07-08T02:43:29;97159.44;;;19.05;53.91
12178;BME280;6152;48.728;9.256;2023-07-08T02:45:55;97151.81;;;19.02;54.78
12178;BME280;6152;48.728;9.256;2023-07-08T02:48:21;97160.84;;;18.99;55.89
12178;BME280;6152;48.728;9.256;2023-07-08T02:50:47;97160.31;;;18.96;57.03
12178;BME280;6152;48.728;9.256;2023-07-08T02:53:13;97170.88;;;18.96;56.64
12178;BME280;6152;48.728;9.256;2023-07-08T02:55:40;97181.41;;;18.96;57.15
12178;BME280;6152;48.728;9.256;2023-07-08T02:58:09;97190.84;;;18.98;57.02
12178;BME280;6152;48.728;9.256;2023-07-08T03:00:36;97191.38;;;19.02;57.69
12178;BME280;6152;48.728;9.256;2023-07-08T03:03:04;97196.38;;;19.05;57.49
12178;BME280;6152;48.728;9.256;2023-07-08T03:05:30;97188.31;;;19.06;56.74
12178;BME280;6152;48.728;9.256;2023-07-08T03:07:56;97197.19;;;19.15;55.32
12178;BME280;6152;48.728;9.256;2023-07-08T03:10:23;97191.59;;;19.18;54.85
12178;BME280;6152;48.728;9.256;2023-07-08T03:12:49;97192.16;;;19.22;55.07
12178;BME280;6152;48.728;9.256;2023-07-08T03:15:15;97192.97;;;19.22;55.37
12178;BME280;6152;48.728;9.256;2023-07-08T03:17:41;97201.19;;;19.19;55.16
12178;BME280;6152;48.728;9.256;2023-07-08T03:20:08;97197.72;;;19.18;54.79
12178;BME280;6152;48.728;9.256;2023-07-08T03:22:34;97188.00;;;19.19;55.58
12178;BME280;6152;48.728;9.256;2023-07-08T03:25:00;97197.72;;;19.18;55.87
12178;BME280;6152;48.728;9.256;2023-07-08T03:27:26;97196.03;;;19.17;56.99
12178;BME280;6152;48.728;9.256;2023-07-08T03:29:52;97191.91;;;19.15;57.60
12178;BME280;6152;48.728;9.256;2023-07-08T03:32:18;97197.47;;;19.12;58.99
12178;BME280;6152;48.728;9.256;2023-07-08T03:34:45;97180.66;;;19.13;58.71
12178;BME280;6152;48.728;9.256;2023-07-08T03:37:11;97182.88;;;19.08;59.06
12178;BME280;6152;48.728;9.256;2023-07-08T03:39:37;97187.34;;;19.07;59.58
12178;BME280;6152;48.728;9.256;2023-07-08T03:42:04;97178.88;;;19.04;61.79
12178;BME280;6152;48.728;9.256;2023-07-08T03:44:30;97177.50;;;19.00;60.57
12178;BME280;6152;48.728;9.256;2023-07-08T03:46:56;97186.13;;;19.02;61.31
12178;BME280;6152;48.728;9.256;2023-07-08T03:49:24;97186.25;;;19.00;62.46
12178;BME280;6152;48.728;9.256;2023-07-08T03:51:52;97196.94;;;18.99;62.14
12178;BME280;6152;48.728;9.256;2023-07-08T03:54:20;97183.34;;;18.94;61.35
12178;BME280;6152;48.728;9.256;2023-07-08T03:56:46;97185.03;;;18.95;62.30
12178;BME280;6152;48.728;9.256;2023-07-08T03:59:12;97190.28;;;18.95;62.86
12178;BME280;6152;48.728;9.256;2023-07-08T04:01:39;97192.78;;;18.96;64.71
12178;BME280;6152;48.728;9.256;2023-07-08T04:04:08;97190.00;;;18.98;65.04
12178;BME280;6152;48.728;9.256;2023-07-08T04:06:36;97193.31;;;19.00;64.52
12178;BME280;6152;48.728;9.256;2023-07-08T04:09:02;97192.22;;;19.02;62.18
12178;BME280;6152;48.728;9.256;2023-07-08T04:11:29;97184.03;;;19.05;61.83
12178;BME280;6152;48.728;9.256;2023-07-08T04:13:55;97182.75;;;19.09;60.90
12178;BME280;6152;48.728;9.256;2023-07-08T04:16:28;97185.25;;;19.11;63.34
12178;BME280;6152;48.728;9.256;2023-07-08T04:18:56;97185.78;;;19.14;62.22
12178;BME280;6152;48.728;9.256;2023-07-08T04:21:23;97189.25;;;19.15;61.38
12178;BME280;6152;48.728;9.256;2023-07-08T04:23:51;97183.69;;;19.18;61.24
12178;BME280;6152;48.728;9.256;2023-07-08T04:26:17;97182.31;;;19.24;60.44
12178;BME280;6152;48.728;9.256;2023-07-08T04:28:45;97186.00;;;19.31;60.80
12178;BME280;6152;48.728;9.256;2023-07-08T04:31:11;97181.78;;;19.38;62.52
12178;BME280;6152;48.728;9.256;2023-07-08T04:33:37;97182.09;;;19.44;65.74
12178;BME280;6152;48.728;9.256;2023-07-08T04:36:04;97181.50;;;19.50;64.16
12178;BME280;6152;48.728;9.256;2023-07-08T04:38:31;97188.53;;;19.59;63.12
12178;BME280;6152;48.728;9.256;2023-07-08T04:40:58;97196.28;;;19.71;64.43
12178;BME280;6152;48.728;9.256;2023-07-08T04:43:24;97210.38;;;19.89;63.55
12178;BME280;6152;48.728;9.256;2023-07-08T04:45:54;97208.19;;;20.02;64.52
12178;BME280;6152;48.728;9.256;2023-07-08T04:48:22;97199.75;;;20.16;63.50
12178;BME280;6152;48.728;9.256;2023-07-08T04:50:51;97202.09;;;20.19;57.53
12178;BME280;6152;48.728;9.256;2023-07-08T04:53:18;97197.78;;;20.18;57.74
12178;BME280;6152;48.728;9.256;2023-07-08T04:55:51;97194.53;;;20.24;58.29
12178;BME280;6152;48.728;9.256;2023-07-08T04:58:18;97194.66;;;20.32;57.93
12178;BME280;6152;48.728;9.256;2023-07-08T05:00:44;97197.97;;;20.34;58.50
12178;BME280;6152;48.728;9.256;2023-07-08T05:03:11;97199.00;;;20.41;58.83
12178;BME280;6152;48.728;9.256;2023-07-08T05:05:37;97192.09;;;20.40;57.79
12178;BME280;6152;48.728;9.256;2023-07-08T05:08:03;97199.53;;;20.45;58.39
12178;BME280;6152;48.728;9.256;2023-07-08T05:10:29;97203.09;;;20.53;59.48
12178;BME280;6152;48.728;9.256;2023-07-08T05:12:55;97207.25;;;20.56;58.96
12178;BME280;6152;48.728;9.256;2023-07-08T05:15:21;97206.81;;;20.60;59.80
12178;BME280;6152;48.728;9.256;2023-07-08T05:17:49;97204.44;;;20.75;59.19
12178;BME280;6152;48.728;9.256;2023-07-08T05:20:16;97208.94;;;20.83;57.53
12178;BME280;6152;48.728;9.256;2023-07-08T05:22:44;97201.59;;;20.94;57.02
12178;BME280;6152;48.728;9.256;2023-07-08T05:25:12;97194.91;;;21.08;56.67
12178;BME280;6152;48.728;9.256;2023-07-08T05:27:38;97220.84;;;21.22;57.40
12178;BME280;6152;48.728;9.256;2023-07-08T05:30:06;97226.50;;;21.27;56.97
12178;BME280;6152;48.728;9.256;2023-07-08T05:32:32;97217.56;;;21.28;55.97
12178;BME280;6152;48.728;9.256;2023-07-08T05:34:59;97220.22;;;21.28;56.11
12178;BME280;6152;48.728;9.256;2023-07-08T05:37:25;97239.13;;;21.33;57.79
12178;BME280;6152;48.728;9.256;2023-07-08T05:39:53;97226.59;;;21.43;56.90
12178;BME280;6152;48.728;9.256;2023-07-08T05:42:21;97228.97;;;21.54;56.02
12178;BME280;6152;48.728;9.256;2023-07-08T05:44:48;97229.00;;;21.62;55.28
12178;BME280;6152;48.728;9.256;2023-07-08T05:47:15;97232.53;;;21.71;54.85
12178;BME280;6152;48.728;9.256;2023-07-08T05:49:41;97238.00;;;21.78;55.51
12178;BME280;6152;48.728;9.256;2023-07-08T05:52:08;97235.78;;;21.91;55.37
12178;BME280;6152;48.728;9.256;2023-07-08T05:54:40;97231.63;;;21.96;55.82
12178;BME280;6152;48.728;9.256;2023-07-08T05:57:08;97240.50;;;22.13;56.49
12178;BME280;6152;48.728;9.256;2023-07-08T05:59:36;97244.81;;;22.22;56.78
12178;BME280;6152;48.728;9.256;2023-07-08T06:02:03;97241.69;;;22.35;57.72
12178;BME280;6152;48.728;9.256;2023-07-08T06:04:29;97247.34;;;22.48;57.31
12178;BME280;6152;48.728;9.256;2023-07-08T06:06:56;97242.53;;;22.51;57.21
12178;BME280;6152;48.728;9.256;2023-07-08T06:09:23;97243.53;;;22.58;55.99
12178;BME280;6152;48.728;9.256;2023-07-08T06:11:49;97246.25;;;22.67;57.49
12178;BME280;6152;48.728;9.256;2023-07-08T06:14:15;97253.53;;;22.73;56.55
12178;BME280;6152;48.728;9.256;2023-07-08T06:16:41;97247.75;;;22.77;55.45
12178;BME280;6152;48.728;9.256;2023-07-08T06:19:08;97250.56;;;22.84;54.82
12178;BME280;6152;48.728;9.256;2023-07-08T06:21:34;97245.28;;;22.92;54.33
12178;BME280;6152;48.728;9.256;2023-07-08T06:24:00;97249.06;;;23.13;55.19
12178;BME280;6152;48.728;9.256;2023-07-08T06:26:27;97245.88;;;23.34;51.01
12178;BME280;6152;48.728;9.256;2023-07-08T06:28:53;97244.22;;;23.49;50.15
12178;BME280;6152;48.728;9.256;2023-07-08T06:31:19;97251.00;;;23.68;49.33
12178;BME280;6152;48.728;9.256;2023-07-08T06:33:45;97252.09;;;23.82;49.17
12178;BME280;6152;48.728;9.256;2023-07-08T06:36:11;97260.34;;;23.95;47.63
12178;BME280;6152;48.728;9.256;2023-07-08T06:38:37;97272.44;;;24.05;48.27
12178;BME280;6152;48.728;9.256;2023-07-08T06:41:03;97277.22;;;24.10;48.05
12178;BME280;6152;48.728;9.256;2023-07-08T06:43:29;97284.59;;;24.00;49.43
12178;BME280;6152;48.728;9.256;2023-07-08T06:45:55;97290.25;;;23.97;49.64
12178;BME280;6152;48.728;9.256;2023-07-08T06:48:21;97294.44;;;23.83;49.36
12178;BME280;6152;48.728;9.256;2023-07-08T06:50:50;97302.63;;;23.82;50.06
12178;BME280;6152;48.728;9.256;2023-07-08T06:53:16;97301.91;;;23.88;50.39
12178;BME280;6152;48.728;9.256;2023-07-08T06:55:44;97300.88;;;23.97;49.81
12178;BME280;6152;48.728;9.256;2023-07-08T06:58:11;97293.59;;;23.99;50.19
12178;BME280;6152;48.728;9.256;2023-07-08T07:00:41;97300.50;;;24.08;50.61
12178;BME280;6152;48.728;9.256;2023-07-08T07:03:07;97301.50;;;24.23;50.85
12178;BME280;6152;48.728;9.256;2023-07-08T07:05:33;97305.84;;;24.16;48.76
12178;BME280;6152;48.728;9.256;2023-07-08T07:07:59;97308.84;;;24.05;49.86
12178;BME280;6152;48.728;9.256;2023-07-08T07:10:25;97307.53;;;23.93;49.55
12178;BME280;6152;48.728;9.256;2023-07-08T07:12:51;97304.94;;;23.85;49.85
12178;BME280;6152;48.728;9.256;2023-07-08T07:15:17;97297.94;;;23.92;50.38
12178;BME280;6152;48.728;9.256;2023-07-08T07:17:45;97307.25;;;23.88;50.80
12178;BME280;6152;48.728;9.256;2023-07-08T07:20:11;97308.84;;;23.97;50.77
12178;BME280;6152;48.728;9.256;2023-07-08T07:22:37;97309.13;;;24.10;51.39
12178;BME280;6152;48.728;9.256;2023-07-08T07:25:04;97299.81;;;24.22;50.77
12178;BME280;6152;48.728;9.256;2023-07-08T07:27:30;97300.31;;;24.26;50.33
12178;BME280;6152;48.728;9.256;2023-07-08T07:29:57;97303.34;;;24.45;50.48
12178;BME280;6152;48.728;9.256;2023-07-08T07:32:26;97307.66;;;24.54;48.97
12178;BME280;6152;48.728;9.256;2023-07-08T07:34:52;97320.00;;;24.47;49.57
12178;BME280;6152;48.728;9.256;2023-07-08T07:37:21;97322.66;;;24.47;50.14
12178;BME280;6152;48.728;9.256;2023-07-08T07:39:47;97321.44;;;24.58;50.09
12178;BME280;6152;48.728;9.256;2023-07-08T07:42:15;97314.47;;;24.80;50.89
12178;BME280;6152;48.728;9.256;2023-07-08T07:44:41;97314.69;;;25.01;50.76
12178;BME280;6152;48.728;9.256;2023-07-08T07:47:08;97315.94;;;25.13;49.29
12178;BME280;6152;48.728;9.256;2023-07-08T07:49:35;97314.63;;;25.09;48.47
12178;BME280;6152;48.728;9.256;2023-07-08T07:52:01;97323.97;;;25.05;48.64
12178;BME280;6152;48.728;9.256;2023-07-08T07:54:27;97312.31;;;25.06;49.46
12178;BME280;6152;48.728;9.256;2023-07-08T07:56:53;97316.41;;;25.17;49.61
12178;BME280;6152;48.728;9.256;2023-07-08T07:59:20;97308.91;;;25.35;49.89
12178;BME280;6152;48.728;9.256;2023-07-08T08:01:46;97310.06;;;25.55;48.63
12178;BME280;6152;48.728;9.256;2023-07-08T08:04:12;97313.06;;;25.75;48.25
12178;BME280;6152;48.728;9.256;2023-07-08T08:06:38;97313.50;;;25.93;49.27
12178;BME280;6152;48.728;9.256;2023-07-08T08:09:06;97321.34;;;26.09;48.10
12178;BME280;6152;48.728;9.256;2023-07-08T08:11:32;97314.44;;;26.00;47.75
12178;BME280;6152;48.728;9.256;2023-07-08T08:14:00;97312.97;;;26.12;48.81
12178;BME280;6152;48.728;9.256;2023-07-08T08:16:26;97317.00;;;26.08;47.42
12178;BME280;6152;48.728;9.256;2023-07-08T08:18:52;97317.75;;;26.31;48.42
12178;BME280;6152;48.728;9.256;2023-07-08T08:21:19;97314.16;;;26.39;46.53
12178;BME280;6152;48.728;9.256;2023-07-08T08:23:45;97314.66;;;26.63;46.52
12178;BME280;6152;48.728;9.256;2023-07-08T08:26:11;97319.03;;;27.07;45.66
12178;BME280;6152;48.728;9.256;2023-07-08T08:28:37;97322.59;;;27.35;43.53
12178;BME280;6152;48.728;9.256;2023-07-08T08:31:03;97322.09;;;27.46;43.99
12178;BME280;6152;48.728;9.256;2023-07-08T08:33:29;97326.16;;;27.64;44.02
12178;BME280;6152;48.728;9.256;2023-07-08T08:35:55;97332.56;;;28.03;44.30
12178;BME280;6152;48.728;9.256;2023-07-08T08:38:21;97326.38;;;28.31;42.17
12178;BME280;6152;48.728;9.256;2023-07-08T08:40:47;97325.06;;;28.54;40.94
12178;BME280;6152;48.728;9.256;2023-07-08T08:43:18;97333.59;;;28.78;40.19
12178;BME280;6152;48.728;9.256;2023-07-08T08:46:01;97333.47;;;28.99;40.07
12178;BME280;6152;48.728;9.256;2023-07-08T08:48:32;97327.75;;;29.28;39.71
12178;BME280;6152;48.728;9.256;2023-07-08T08:51:09;97322.16;;;29.69;39.22
12178;BME280;6152;48.728;9.256;2023-07-08T08:53:37;97319.09;;;30.63;38.26
12178;BME280;6152;48.728;9.256;2023-07-08T08:56:24;97319.28;;;31.37;36.07
12178;BME280;6152;48.728;9.256;2023-07-08T08:59:16;97322.41;;;32.08;34.90
12178;BME280;6152;48.728;9.256;2023-07-08T09:01:46;97331.31;;;33.52;32.67
12178;BME280;6152;48.728;9.256;2023-07-08T09:04:17;97328.91;;;34.32;31.04
12178;BME280;6152;48.728;9.256;2023-07-08T09:06:46;97322.81;;;35.33;29.49
12178;BME280;6152;48.728;9.256;2023-07-08T09:09:35;97323.88;;;35.82;27.72
12178;BME280;6152;48.728;9.256;2023-07-08T09:12:06;97320.69;;;36.40;27.90
12178;BME280;6152;48.728;9.256;2023-07-08T09:14:37;97334.19;;;37.27;25.44
12178;BME280;6152;48.728;9.256;2023-07-08T09:17:23;97331.88;;;36.66;25.76
12178;BME280;6152;48.728;9.256;2023-07-08T09:22:28;97330.59;;;36.95;25.11
12178;BME280;6152;48.728;9.256;2023-07-08T09:27:48;97335.75;;;34.75;28.55
12178;BME280;6152;48.728;9.256;2023-07-08T09:30:17;97325.09;;;34.45;29.17
12178;BME280;6152;48.728;9.256;2023-07-08T09:32:43;97324.25;;;35.24;28.48
12178;BME280;6152;48.728;9.256;2023-07-08T09:35:16;97319.53;;;34.23;28.48
12178;BME280;6152;48.728;9.256;2023-07-08T09:37:46;97321.91;;;34.99;28.63
12178;BME280;6152;48.728;9.256;2023-07-08T09:40:20;97317.72;;;35.20;28.25
12178;BME280;6152;48.728;9.256;2023-07-08T09:42:52;97315.31;;;36.45;27.24
12178;BME280;6152;48.728;9.256;2023-07-08T09:45:22;97307.50;;;37.78;24.90
12178;BME280;6152;48.728;9.256;2023-07-08T09:47:55;97316.13;;;38.54;24.21
12178;BME280;6152;48.728;9.256;2023-07-08T09:50:23;97317.25;;;38.58;23.75
12178;BME280;6152;48.728;9.256;2023-07-08T09:52:51;97313.59;;;38.99;23.82
12178;BME280;6152;48.728;9.256;2023-07-08T09:55:18;97323.50;;;39.51;23.08
12178;BME280;6152;48.728;9.256;2023-07-08T09:57:50;97318.59;;;39.37;22.30
12178;BME280;6152;48.728;9.256;2023-07-08T10:00:34;97321.81;;;40.25;22.53
12178;BME280;6152;48.728;9.256;2023-07-08T10:03:19;97322.13;;;39.88;23.17
12178;BME280;6152;48.728;9.256;2023-07-08T10:05:48;97323.09;;;36.80;25.92
12178;BME280;6152;48.728;9.256;2023-07-08T10:08:19;97322.78;;;35.17;27.89
12178;BME280;6152;48.728;9.256;2023-07-08T10:10:54;97322.66;;;34.43;29.25
12178;BME280;6152;48.728;9.256;2023-07-08T10:13:41;97318.19;;;32.85;31.17
12178;BME280;6152;48.728;9.256;2023-07-08T10:18:36;97320.81;;;31.58;33.01
12178;BME280;6152;48.728;9.256;2023-07-08T10:21:11;97317.94;;;31.52;32.96
12178;BME280;6152;48.728;9.256;2023-07-08T10:24:04;97318.59;;;31.41;31.95
12178;BME280;6152;48.728;9.256;2023-07-08T10:26:39;97320.88;;;30.82;32.38
12178;BME280;6152;48.728;9.256;2023-07-08T10:31:53;97326.53;;;32.11;32.56
12178;BME280;6152;48.728;9.256;2023-07-08T10:37:28;97333.25;;;34.22;28.81
12178;BME280;6152;48.728;9.256;2023-07-08T10:53:30;97321.09;;;40.74;22.25
12178;BME280;6152;48.728;9.256;2023-07-08T10:56:18;97315.63;;;41.62;20.68
12178;BME280;6152;48.728;9.256;2023-07-08T11:06:22;97312.44;;;43.26;19.02
12178;BME280;6152;48.728;9.256;2023-07-08T11:08:58;97309.59;;;43.50;18.41
12178;BME280;6152;48.728;9.256;2023-07-08T11:11:37;97300.50;;;43.54;18.79
12178;BME280;6152;48.728;9.256;2023-07-08T11:14:29;97296.50;;;43.79;18.21
12178;BME280;6152;48.728;9.256;2023-07-08T11:17:12;97310.81;;;42.64;18.81
12178;BME280;6152;48.728;9.256;2023-07-08T11:19:53;97298.41;;;39.89;20.65
12178;BME280;6152;48.728;9.256;2023-07-08T11:22:23;97300.53;;;39.21;22.21
12178;BME280;6152;48.728;9.256;2023-07-08T11:24:52;97297.41;;;38.72;22.16
12178;BME280;6152;48.728;9.256;2023-07-08T11:30:05;97296.22;;;39.96;21.60
12178;BME280;6152;48.728;9.256;2023-07-08T11:32:38;97287.44;;;40.19;21.51
12178;BME280;6152;48.728;9.256;2023-07-08T11:35:07;97305.91;;;41.51;20.94
12178;BME280;6152;48.728;9.256;2023-07-08T11:37:40;97295.13;;;41.93;19.32
12178;BME280;6152;48.728;9.256;2023-07-08T11:42:47;97291.59;;;41.59;19.49
12178;BME280;6152;48.728;9.256;2023-07-08T11:45:31;97287.28;;;42.10;19.41
12178;BME280;6152;48.728;9.256;2023-07-08T11:48:23;97275.53;;;42.57;18.95
12178;BME280;6152;48.728;9.256;2023-07-08T11:50:52;97281.47;;;43.07;18.66
12178;BME280;6152;48.728;9.256;2023-07-08T11:53:36;97268.59;;;44.04;18.36
12178;BME280;6152;48.728;9.256;2023-07-08T12:01:30;97263.66;;;41.96;18.89
12178;BME280;6152;48.728;9.256;2023-07-08T12:05:10;97262.50;;;41.44;19.72
12178;BME280;6152;48.728;9.256;2023-07-08T12:07:17;97251.16;;;41.22;19.70
12178;BME280;6152;48.728;9.256;2023-07-08T12:09:58;97243.06;;;41.46;19.44
12178;BME280;6152;48.728;9.256;2023-07-08T12:12:35;97248.16;;;41.57;19.76
12178;BME280;6152;48.728;9.256;2023-07-08T12:15:12;97243.50;;;40.85;19.92
12178;BME280;6152;48.728;9.256;2023-07-08T12:17:41;97247.19;;;39.41;21.19
12178;BME280;6152;48.728;9.256;2023-07-08T12:20:23;97249.00;;;37.38;23.34
12178;BME280;6152;48.728;9.256;2023-07-08T12:22:50;97240.97;;;36.03;24.65
12178;BME280;6152;48.728;9.256;2023-07-08T12:25:20;97246.34;;;35.43;25.28
12178;BME280;6152;48.728;9.256;2023-07-08T12:27:47;97239.22;;;34.75;25.83
12178;BME280;6152;48.728;9.256;2023-07-08T12:30:15;97238.66;;;34.10;27.67
12178;BME280;6152;48.728;9.256;2023-07-08T12:32:43;97231.34;;;33.71;28.23
12178;BME280;6152;48.728;9.256;2023-07-08T12:37:48;97246.88;;;33.11;28.70
12178;BME280;6152;48.728;9.256;2023-07-08T12:40:15;97236.47;;;32.84;29.23
12178;BME280;6152;48.728;9.256;2023-07-08T12:42:41;97241.31;;;32.64;29.00
12178;BME280;6152;48.728;9.256;2023-07-08T12:45:19;97236.88;;;32.51;29.84
12178;BME280;6152;48.728;9.256;2023-07-08T12:47:46;97232.56;;;32.50;29.65
12178;BME280;6152;48.728;9.256;2023-07-08T12:50:13;97234.44;;;32.50;29.52
12178;BME280;6152;48.728;9.256;2023-07-08T12:52:39;97235.00;;;32.22;30.39
12178;BME280;6152;48.728;9.256;2023-07-08T12:55:09;97227.13;;;32.21;30.25
12178;BME280;6152;48.728;9.256;2023-07-08T12:57:37;97231.69;;;32.38;31.20
12178;BME280;6152;48.728;9.256;2023-07-08T13:00:04;97228.41;;;32.36;30.16
12178;BME280;6152;48.728;9.256;2023-07-08T13:02:32;97225.72;;;32.36;29.95
12178;BME280;6152;48.728;9.256;2023-07-08T13:05:00;97221.97;;;32.37;29.67
12178;BME280;6152;48.728;9.256;2023-07-08T13:07:36;97222.91;;;32.13;30.08
12178;BME280;6152;48.728;9.256;2023-07-08T13:10:14;97225.03;;;32.04;30.52
12178;BME280;6152;48.728;9.256;2023-07-08T13:12:41;97216.88;;;31.93;30.93
12178;BME280;6152;48.728;9.256;2023-07-08T13:15:36;97212.31;;;31.93;30.95
12178;BME280;6152;48.728;9.256;2023-07-08T13:18:03;97211.28;;;31.94;30.46
12178;BME280;6152;48.728;9.256;2023-07-08T13:20:29;97209.41;;;31.95;30.00
12178;BME280;6152;48.728;9.256;2023-07-08T13:22:59;97214.81;;;31.95;30.30
12178;BME280;6152;48.728;9.256;2023-07-08T13:25:28;97209.72;;;31.87;29.73
12178;BME280;6152;48.728;9.256;2023-07-08T13:27:57;97204.31;;;31.87;30.17
12178;BME280;6152;48.728;9.256;2023-07-08T13:30:26;97215.84;;;31.76;29.24
12178;BME280;6152;48.728;9.256;2023-07-08T13:32:54;97214.34;;;31.62;29.89
12178;BME280;6152;48.728;9.256;2023-07-08T13:35:22;97215.91;;;31.51;30.52
12178;BME280;6152;48.728;9.256;2023-07-08T13:37:48;97209.50;;;31.45;30.31
12178;BME280;6152;48.728;9.256;2023-07-08T13:40:16;97209.03;;;31.48;30.38
12178;BME280;6152;48.728;9.256;2023-07-08T13:42:52;97213.41;;;31.49;30.75
12178;BME280;6152;48.728;9.256;2023-07-08T13:45:31;97204.50;;;31.49;31.86
12178;BME280;6152;48.728;9.256;2023-07-08T13:48:02;97211.88;;;31.60;31.62
12178;BME280;6152;48.728;9.256;2023-07-08T13:50:38;97204.31;;;31.69;31.82
12178;BME280;6152;48.728;9.256;2023-07-08T13:53:16;97207.69;;;31.64;31.19
12178;BME280;6152;48.728;9.256;2023-07-08T13:55:43;97205.31;;;31.49;31.37
12178;BME280;6152;48.728;9.256;2023-07-08T13:58:15;97202.22;;;31.52;31.66
12178;BME280;6152;48.728;9.256;2023-07-08T14:00:42;97208.06;;;31.68;32.08
12178;BME280;6152;48.728;9.256;2023-07-08T14:03:12;97202.38;;;31.58;31.37
12178;BME280;6152;48.728;9.256;2023-07-08T14:05:41;97194.91;;;31.60;30.96
12178;BME280;6152;48.728;9.256;2023-07-08T14:08:16;97191.16;;;31.61;31.37
12178;BME280;6152;48.728;9.256;2023-07-08T14:10:48;97189.22;;;31.68;31.58
12178;BME280;6152;48.728;9.256;2023-07-08T14:13:14;97188.50;;;31.79;31.72
12178;BME280;6152;48.728;9.256;2023-07-08T14:15:41;97192.50;;;31.88;31.30
12178;BME280;6152;48.728;9.256;2023-07-08T14:18:10;97186.09;;;31.89;31.81
12178;BME280;6152;48.728;9.256;2023-07-08T14:20:37;97193.25;;;31.95;31.15